KBBD/BBD METAR and TAF weather

Enter ICAO airport designator
Station Type Date Time Source
KBBD METAR 2022/11/27 09:15 UTC NOAA

KBBD 270915Z AUTO 27004KT 10SM CLR 06/02 A2983 RMK AO2


Station Type Date Time Source
KBBD Decoded METAR 2022/11/27 09:15 UTC NOAA

Brady, Curtis Field Airport, TX, United States (KBBD) 31-10-45N 099-19-26W
Nov 27, 2022 - 04:15 AM EST / 2022.11.27 0915 UTC
Wind: from the W (270 degrees) at 5 MPH (4 KT):0
Visibility: 10 mile(s):0
Sky conditions: clear
Temperature: 42 F (6 C)
Dew Point: 35 F (2 C)
Relative Humidity: 75%
Pressure (altimeter): 29.83 in. Hg (1010 hPa)
ob: KBBD 270915Z AUTO 27004KT 10SM CLR 06/02 A2983 RMK AO2
cycle: 9

Station Type Date Time Source
KBBD TAF 2022/11/27 06:22 UTC NOAA

TAF KBBD 270520Z 2706/2806 25007KT P6SM SKC
FM271500 30007KT P6SM SKC
FM280000 34005KT P6SM SKC

Example: see airport list